Time;durP1;ratioP1;P1;durP2;ratioP2;P2;SDS_P1;SDS_P2;PMS_P1;PMS_P2;Temp;Humidity;BMP_temperature;BMP_pressure;BME280_temperature;BME280_humidity;BME280_pressure;Samples;Min_cycle;Max_cycle;Signal;HPM_P1;HPM_P2
2023/07/30 00:00:02;;;;;;;9.10;3.70;;;;;;;16.58;90.19;96671.81;108674;1253;94184;-82
2023/07/30 00:02:30;;;;;;;11.10;3.60;;;;;;;16.55;89.78;96668.16;108738;1252;94558;-82
2023/07/30 00:04:58;;;;;;;5.00;3.60;;;;;;;16.47;89.70;96664.10;108767;1252;111085;-82
2023/07/30 00:07:25;;;;;;;13.00;3.70;;;;;;;16.41;90.02;96667.46;108793;1252;101363;-82
2023/07/30 00:09:53;;;;;;;4.70;3.60;;;;;;;16.42;90.22;96663.05;108754;1253;98799;-82
2023/07/30 00:12:21;;;;;;;7.40;3.70;;;;;;;16.38;90.04;96665.32;108743;1253;94545;-82
2023/07/30 00:14:48;;;;;;;5.90;3.80;;;;;;;16.36;89.95;96664.70;108813;1252;94631;-82
2023/07/30 00:17:16;;;;;;;7.30;4.90;;;;;;;16.28;89.77;96667.08;108784;1252;102363;-82
2023/07/30 00:19:44;;;;;;;7.90;4.10;;;;;;;16.23;90.03;96663.02;108844;1252;101661;-83
2023/07/30 00:22:11;;;;;;;8.60;3.90;;;;;;;16.22;90.35;96662.79;108795;1253;99879;-83
2023/07/30 00:24:39;;;;;;;7.20;4.10;;;;;;;16.28;90.75;96662.28;108776;1252;94261;-83
2023/07/30 00:27:07;;;;;;;6.00;4.10;;;;;;;16.31;90.59;96663.80;108835;1252;94392;-81
2023/07/30 00:29:34;;;;;;;5.70;3.70;;;;;;;16.29;90.43;96662.01;108788;1252;102046;-81
2023/07/30 00:32:02;;;;;;;4.50;3.20;;;;;;;16.26;90.51;96657.15;108724;1252;101705;-82
2023/07/30 00:34:30;;;;;;;5.70;3.90;;;;;;;16.24;90.60;96651.37;108727;1252;101547;-83
2023/07/30 00:36:57;;;;;;;5.90;3.40;;;;;;;16.27;90.74;96644.03;108731;1253;94559;-82
2023/07/30 00:39:25;;;;;;;4.70;3.20;;;;;;;16.26;90.70;96637.33;108785;1252;94155;-82
2023/07/30 00:41:53;;;;;;;5.60;3.40;;;;;;;16.29;90.76;96639.04;108785;1252;102902;-83
2023/07/30 00:44:20;;;;;;;5.10;3.90;;;;;;;16.29;90.53;96635.50;108774;1252;101545;-83
2023/07/30 00:46:48;;;;;;;7.40;3.80;;;;;;;16.30;90.69;96635.48;108791;1252;99979;-82
2023/07/30 00:49:16;;;;;;;7.20;3.80;;;;;;;16.32;90.54;96633.96;108769;1252;94169;-83
2023/07/30 00:51:44;;;;;;;8.80;4.20;;;;;;;16.28;90.43;96633.69;108793;1252;94434;-83
2023/07/30 00:54:13;;;;;;;11.50;3.80;;;;;;;16.28;90.54;96644.85;108805;1252;102073;-83
2023/07/30 00:56:48;;;;;;;5.80;3.80;;;;;;;16.27;90.45;96651.66;108806;1252;101553;-82
2023/07/30 00:59:15;;;;;;;6.80;3.70;;;;;;;16.21;90.35;96653.73;108813;1253;100003;-81
2023/07/30 01:01:44;;;;;;;8.50;4.30;;;;;;;16.18;90.64;96647.98;108797;1253;94193;-83
2023/07/30 01:04:11;;;;;;;6.70;3.80;;;;;;;16.17;90.80;96642.27;108869;1252;94509;-84
2023/07/30 01:06:39;;;;;;;7.90;3.70;;;;;;;16.20;91.18;96636.43;108813;1252;100783;-83
2023/07/30 01:09:07;;;;;;;5.20;3.60;;;;;;;16.18;90.70;96634.40;108801;1252;101591;-82
2023/07/30 01:11:37;;;;;;;6.10;3.50;;;;;;;16.14;90.70;96632.77;108678;1252;100160;-83
2023/07/30 01:14:07;;;;;;;6.50;3.90;;;;;;;16.15;91.23;96637.02;108747;1253;94304;-82
2023/07/30 01:16:34;;;;;;;6.70;4.50;;;;;;;16.19;91.24;96629.77;108775;1252;94387;-83
2023/07/30 01:19:04;;;;;;;5.80;4.00;;;;;;;16.24;91.11;96636.34;108837;1252;102189;-83
2023/07/30 01:21:35;;;;;;;4.10;3.40;;;;;;;16.29;91.39;96640.45;108776;1253;101604;-83
2023/07/30 01:24:04;;;;;;;4.00;3.60;;;;;;;16.29;91.05;96640.06;108785;1252;100026;-83
2023/07/30 01:26:44;;;;;;;6.40;3.70;;;;;;;16.21;90.72;96642.15;108608;1254;95024;-81
2023/07/30 01:29:23;;;;;;;6.00;3.70;;;;;;;16.15;90.84;96641.14;108708;1253;95712;-83
2023/07/30 01:32:05;;;;;;;5.40;3.20;;;;;;;16.13;90.93;96642.93;108649;1256;108898;-81
2023/07/30 01:34:36;;;;;;;3.70;2.60;;;;;;;16.11;91.07;96640.30;108428;1253;101454;-83
2023/07/30 01:37:05;;;;;;;4.10;3.10;;;;;;;16.13;91.43;96630.73;108674;1253;100068;-83
2023/07/30 01:39:34;;;;;;;5.00;3.10;;;;;;;16.18;91.41;96624.16;108663;1256;94265;-83
2023/07/30 01:42:02;;;;;;;4.70;3.00;;;;;;;16.20;91.38;96621.93;108584;1256;94809;-83
2023/07/30 01:44:30;;;;;;;5.80;3.00;;;;;;;16.18;91.43;96621.92;108647;1254;102493;-83
2023/07/30 01:46:58;;;;;;;5.10;3.40;;;;;;;16.19;91.28;96623.94;108682;1254;101676;-83
2023/07/30 01:49:26;;;;;;;4.80;3.10;;;;;;;16.17;90.98;96627.88;108526;1256;100514;-83
2023/07/30 01:51:53;;;;;;;3.90;3.10;;;;;;;16.18;91.18;96631.67;108611;1254;94644;-83
2023/07/30 01:54:21;;;;;;;3.80;3.30;;;;;;;16.23;91.37;96645.31;108624;1254;94717;-83
2023/07/30 01:56:49;;;;;;;6.40;3.00;;;;;;;16.25;91.15;96648.59;108608;1254;100954;-83
2023/07/30 01:59:16;;;;;;;4.90;3.30;;;;;;;16.24;90.96;96647.00;108797;1252;101620;-83
2023/07/30 02:01:44;;;;;;;6.50;3.10;;;;;;;16.18;90.85;96648.13;108776;1253;99973;-83
2023/07/30 02:04:12;;;;;;;6.20;3.10;;;;;;;16.16;90.80;96647.91;108822;1252;94154;-83
2023/07/30 02:06:43;;;;;;;4.80;3.10;;;;;;;16.10;90.71;96646.34;108788;1252;94685;-83
2023/07/30 02:09:10;;;;;;;4.10;2.70;;;;;;;16.10;91.03;96660.44;108822;1253;109893;-83
2023/07/30 02:11:38;;;;;;;4.60;3.10;;;;;;;16.10;90.94;96660.34;108871;1252;101588;-83
2023/07/30 02:14:06;;;;;;;6.10;2.90;;;;;;;16.07;90.77;96653.52;108822;1252;100285;-84
2023/07/30 02:16:33;;;;;;;7.70;3.10;;;;;;;16.06;90.74;96653.52;108764;1253;94156;-83
2023/07/30 02:19:01;;;;;;;5.70;3.30;;;;;;;16.05;90.74;96649.86;108827;1256;94668;-84
2023/07/30 02:21:32;;;;;;;5.10;3.60;;;;;;;15.97;90.81;96644.26;108783;1253;110150;-83
2023/07/30 02:24:02;;;;;;;5.70;3.30;;;;;;;15.94;90.89;96641.89;108809;1252;101615;-83
2023/07/30 02:26:30;;;;;;;6.50;3.50;;;;;;;15.94;91.38;96645.70;108783;1252;105622;-83
2023/07/30 02:29:00;;;;;;;4.60;3.30;;;;;;;15.96;91.30;96650.07;108844;1252;94279;-83
2023/07/30 02:31:27;;;;;;;7.70;3.40;;;;;;;15.99;91.36;96650.09;108778;1253;94653;-83
2023/07/30 02:33:55;;;;;;;4.10;3.50;;;;;;;16.00;91.35;96653.98;108754;1253;102368;-83
2023/07/30 02:36:23;;;;;;;5.90;4.10;;;;;;;16.00;91.42;96651.02;108834;1253;101729;-84
2023/07/30 02:38:51;;;;;;;7.10;3.10;;;;;;;16.00;91.39;96642.48;108833;1252;100219;-83
2023/07/30 02:41:18;;;;;;;5.90;3.40;;;;;;;16.02;91.45;96642.92;108771;1253;94415;-83
2023/07/30 02:43:46;;;;;;;6.10;3.50;;;;;;;15.99;91.14;96647.31;108808;1253;94541;-83
2023/07/30 02:46:14;;;;;;;7.30;3.40;;;;;;;15.99;91.24;96645.24;108788;1252;102375;-83
2023/07/30 02:48:41;;;;;;;4.90;3.00;;;;;;;15.99;91.32;96646.98;108790;1253;101623;-83
2023/07/30 02:51:09;;;;;;;5.70;3.00;;;;;;;15.98;91.11;96649.76;108757;1253;100028;-83
2023/07/30 02:53:37;;;;;;;6.20;3.10;;;;;;;15.95;91.11;96651.98;108838;1252;94580;-83
2023/07/30 02:56:04;;;;;;;5.40;3.20;;;;;;;15.96;91.12;96656.27;108785;1253;94694;-83
2023/07/30 02:58:32;;;;;;;4.70;3.60;;;;;;;15.98;91.11;96661.19;108844;1252;102440;-83
2023/07/30 03:01:07;;;;;;;5.50;3.20;;;;;;;15.95;90.50;96660.14;108827;1253;109076;-83
2023/07/30 03:03:35;;;;;;;6.80;3.30;;;;;;;15.83;90.39;96653.76;108854;1253;100111;-83
2023/07/30 03:06:03;;;;;;;6.60;4.00;;;;;;;15.77;90.49;96653.06;108812;1253;94262;-82
2023/07/30 03:08:30;;;;;;;5.60;3.60;;;;;;;15.77;90.54;96649.64;108828;1253;94503;-83
2023/07/30 03:11:00;;;;;;;7.30;3.90;;;;;;;15.74;90.41;96656.09;108867;1253;102385;-83
2023/07/30 03:13:27;;;;;;;5.60;3.40;;;;;;;15.71;90.74;96661.83;108869;1252;101405;-82
2023/07/30 03:15:56;;;;;;;4.80;3.40;;;;;;;15.71;90.77;96665.74;108798;1252;100168;-83
2023/07/30 03:18:24;;;;;;;6.10;3.00;;;;;;;15.72;90.78;96662.48;108861;1252;94296;-83
2023/07/30 03:20:51;;;;;;;9.60;3.50;;;;;;;15.71;91.00;96661.45;108862;1252;94525;-82
2023/07/30 03:23:19;;;;;;;7.30;3.50;;;;;;;15.74;91.05;96663.70;108852;1252;102368;-82
2023/07/30 03:25:47;;;;;;;4.20;3.20;;;;;;;15.76;91.12;96672.55;108855;1252;101501;-82
2023/07/30 03:28:14;;;;;;;5.20;3.60;;;;;;;15.79;90.97;96679.59;108871;1252;100339;-83
2023/07/30 03:30:42;;;;;;;4.30;2.90;;;;;;;15.81;91.08;96686.78;108809;1253;94290;-83
2023/07/30 03:33:10;;;;;;;3.10;2.80;;;;;;;15.79;90.64;96687.37;108848;1252;94643;-83
2023/07/30 03:35:37;;;;;;;8.30;3.00;;;;;;;15.74;90.45;96689.33;108782;1252;102170;-82
2023/07/30 03:38:05;;;;;;;3.90;3.20;;;;;;;15.74;90.80;96686.46;108851;1253;101650;-82
2023/07/30 03:40:33;;;;;;;5.20;2.90;;;;;;;15.77;90.93;96688.66;108797;1253;100102;-82
2023/07/30 03:43:00;;;;;;;8.30;3.50;;;;;;;15.78;90.92;96686.27;108808;1252;94162;-82
2023/07/30 03:45:28;;;;;;;6.90;3.10;;;;;;;15.80;90.93;96687.38;108859;1252;94317;-82
2023/07/30 03:47:56;;;;;;;8.20;2.90;;;;;;;15.79;90.61;96693.26;108890;1252;102270;-82
2023/07/30 03:50:23;;;;;;;4.50;3.00;;;;;;;15.79;90.78;96694.50;108893;1252;101444;-82
2023/07/30 03:52:51;;;;;;;5.70;2.90;;;;;;;15.80;90.86;96697.17;108839;1252;100038;-82
2023/07/30 03:55:19;;;;;;;7.00;3.10;;;;;;;15.81;90.93;96693.55;108823;1252;94268;-82
2023/07/30 03:57:46;;;;;;;3.50;2.80;;;;;;;15.80;91.00;96690.86;108779;1253;95631;-82
2023/07/30 04:00:16;;;;;;;4.20;3.00;;;;;;;15.83;91.38;96692.88;108862;1256;101189;-82
2023/07/30 04:02:44;;;;;;;3.70;2.70;;;;;;;15.86;91.40;96689.54;108806;1253;101590;-82
2023/07/30 04:05:11;;;;;;;5.70;2.80;;;;;;;15.89;91.45;96686.67;108781;1253;100035;-82
2023/07/30 04:07:39;;;;;;;6.10;3.10;;;;;;;15.93;91.46;96692.05;108798;1253;94210;-82
2023/07/30 04:10:08;;;;;;;5.40;3.20;;;;;;;15.96;91.49;96695.86;108830;1253;94714;-83
2023/07/30 04:12:35;;;;;;;5.80;3.30;;;;;;;15.99;91.65;96693.54;108839;1253;102361;-83
2023/07/30 04:15:03;;;;;;;7.70;2.70;;;;;;;16.02;91.51;96693.89;108839;1252;110089;-83
2023/07/30 04:17:31;;;;;;;3.80;3.10;;;;;;;16.06;91.54;96697.89;108787;1253;100149;-82
2023/07/30 04:19:59;;;;;;;4.50;3.00;;;;;;;16.09;91.43;96704.32;108772;1254;94270;-83
2023/07/30 04:22:27;;;;;;;5.90;3.20;;;;;;;16.13;91.41;96713.61;108805;1253;94798;-83
2023/07/30 04:24:54;;;;;;;7.00;2.40;;;;;;;16.16;91.48;96717.45;108901;1252;102288;-83
2023/07/30 04:27:22;;;;;;;7.80;2.90;;;;;;;16.18;91.58;96719.90;108887;1252;101529;-82
2023/07/30 04:29:50;;;;;;;4.50;2.90;;;;;;;16.20;91.43;96724.27;108828;1253;108687;-82
2023/07/30 04:32:17;;;;;;;5.40;2.60;;;;;;;16.25;91.39;96728.16;108855;1252;95695;-83
2023/07/30 04:34:45;;;;;;;5.50;3.40;;;;;;;16.27;91.34;96727.70;108835;1252;94676;-82
2023/07/30 04:37:13;;;;;;;6.20;2.90;;;;;;;16.29;91.45;96730.27;108926;1252;102420;-82
2023/07/30 04:39:41;;;;;;;4.00;3.20;;;;;;;16.32;91.59;96730.80;108908;1252;100327;-83
2023/07/30 04:42:08;;;;;;;5.90;3.60;;;;;;;16.33;91.52;96737.67;108859;1253;100148;-83
2023/07/30 04:44:36;;;;;;;4.80;3.40;;;;;;;16.34;91.39;96734.63;108819;1252;94437;-83
2023/07/30 04:47:04;;;;;;;5.90;3.30;;;;;;;16.38;91.52;96732.65;108828;1253;94653;-83
2023/07/30 04:49:31;;;;;;;5.30;3.80;;;;;;;16.41;91.71;96728.64;108840;1253;102523;-83
2023/07/30 04:51:59;;;;;;;7.80;3.70;;;;;;;16.45;91.52;96730.54;108895;1252;100131;-83
2023/07/30 04:54:27;;;;;;;5.60;3.90;;;;;;;16.44;91.50;96734.24;108823;1252;100076;-82
2023/07/30 04:56:54;;;;;;;5.20;3.80;;;;;;;16.45;91.67;96739.48;108806;1256;95973;-83
2023/07/30 04:59:22;;;;;;;9.80;4.20;;;;;;;16.47;91.62;96740.48;108868;1252;94655;-83
2023/07/30 05:01:50;;;;;;;8.60;5.10;;;;;;;16.50;91.91;96737.78;108806;1252;102105;-83
2023/07/30 05:04:17;;;;;;;6.60;5.30;;;;;;;16.55;91.76;96741.54;108885;1253;100275;-83
2023/07/30 05:06:45;;;;;;;7.70;5.20;;;;;;;16.60;91.77;96745.19;108854;1252;99685;-83
2023/07/30 05:09:13;;;;;;;5.30;4.80;;;;;;;16.65;91.92;96742.23;108840;1253;94215;-83
2023/07/30 05:11:40;;;;;;;6.30;4.90;;;;;;;16.67;91.86;96742.13;108788;1253;94652;-83
2023/07/30 05:14:08;;;;;;;6.10;5.00;;;;;;;16.70;91.74;96744.33;108850;1254;102424;-83
2023/07/30 05:16:37;;;;;;;5.80;4.70;;;;;;;16.75;91.78;96741.90;108838;1253;101468;-83
2023/07/30 05:19:05;;;;;;;5.60;4.70;;;;;;;16.79;91.79;96737.65;108828;1253;107186;-83
2023/07/30 05:21:32;;;;;;;5.50;4.50;;;;;;;16.83;91.83;96737.67;108762;1253;94307;-83
2023/07/30 05:24:00;;;;;;;7.60;4.10;;;;;;;16.89;91.94;96736.39;108830;1253;94792;-83
2023/07/30 05:26:28;;;;;;;5.20;4.30;;;;;;;16.95;91.91;96736.02;108832;1253;102374;-83
2023/07/30 05:28:55;;;;;;;6.00;4.20;;;;;;;16.99;91.95;96735.44;108783;1253;101599;-83
2023/07/30 05:31:23;;;;;;;5.30;3.90;;;;;;;17.03;92.23;96739.31;108766;1252;99207;-83
2023/07/30 05:33:51;;;;;;;4.60;4.10;;;;;;;17.08;92.25;96747.18;108755;1253;94760;-83
2023/07/30 05:36:18;;;;;;;4.70;4.20;;;;;;;17.12;92.18;96753.09;108810;1252;94576;-83
2023/07/30 05:38:46;;;;;;;7.50;4.40;;;;;;;17.16;92.10;96754.72;108873;1253;102380;-83
2023/07/30 05:41:14;;;;;;;6.20;4.90;;;;;;;17.19;92.23;96752.66;108790;1253;101634;-83
2023/07/30 05:43:41;;;;;;;7.10;4.90;;;;;;;17.22;92.07;96753.61;108753;1252;108866;-83
2023/07/30 05:46:09;;;;;;;5.70;5.10;;;;;;;17.26;92.31;96756.99;108830;1253;94213;-83
2023/07/30 05:48:37;;;;;;;6.50;4.60;;;;;;;17.29;92.16;96761.04;108821;1252;94464;-83
2023/07/30 05:51:05;;;;;;;6.90;4.80;;;;;;;17.32;92.14;96754.71;108905;1252;102433;-83
2023/07/30 05:53:32;;;;;;;6.60;4.10;;;;;;;17.35;92.06;96756.74;108925;1252;110337;-83
2023/07/30 05:56:00;;;;;;;4.70;4.20;;;;;;;17.38;92.19;96758.38;108851;1253;98846;-83
2023/07/30 05:58:27;;;;;;;9.20;4.80;;;;;;;17.43;91.98;96761.05;108835;1256;94239;-83
2023/07/30 06:00:55;;;;;;;6.80;4.60;;;;;;;17.46;91.75;96761.19;108849;1252;94649;-83
2023/07/30 06:03:23;;;;;;;6.40;4.00;;;;;;;17.49;91.99;96758.68;108783;1253;102408;-83
2023/07/30 06:05:50;;;;;;;5.40;4.40;;;;;;;17.55;92.10;96765.17;108905;1252;107821;-83
2023/07/30 06:08:18;;;;;;;4.80;4.30;;;;;;;17.62;92.22;96763.89;108890;1253;107762;-83
2023/07/30 06:10:49;;;;;;;9.60;4.40;;;;;;;17.68;92.14;96763.46;108793;1253;94173;-83
2023/07/30 06:13:17;;;;;;;7.40;4.40;;;;;;;17.73;92.03;96762.71;108792;1253;94679;-83
2023/07/30 06:15:45;;;;;;;4.50;3.70;;;;;;;17.79;92.12;96760.91;108823;1253;102155;-83
2023/07/30 06:18:12;;;;;;;4.90;4.40;;;;;;;17.86;91.98;96758.19;108823;1253;101936;-83
2023/07/30 06:20:40;;;;;;;4.60;4.00;;;;;;;17.94;91.99;96752.17;108819;1253;99809;-83
2023/07/30 06:23:08;;;;;;;4.60;3.90;;;;;;;18.02;92.14;96754.52;108815;1252;94192;-83
2023/07/30 06:25:36;;;;;;;9.60;4.40;;;;;;;18.09;92.06;96751.52;108796;1252;94384;-83
2023/07/30 06:28:04;;;;;;;6.50;3.70;;;;;;;18.16;92.06;96751.00;108810;1257;102452;-83
2023/07/30 06:30:33;;;;;;;8.70;4.10;;;;;;;18.22;91.84;96749.02;108797;1255;101575;-82
2023/07/30 06:33:00;;;;;;;6.40;3.90;;;;;;;18.28;91.63;96748.41;108857;1252;100122;-83
2023/07/30 06:35:28;;;;;;;4.70;3.40;;;;;;;18.35;91.43;96748.95;108877;1253;94207;-82
2023/07/30 06:37:56;;;;;;;6.30;4.10;;;;;;;18.42;91.23;96755.16;108779;1253;94672;-83
2023/07/30 06:40:23;;;;;;;7.00;3.70;;;;;;;18.50;91.21;96755.64;108841;1253;110126;-83
2023/07/30 06:42:51;;;;;;;4.20;3.60;;;;;;;18.57;91.05;96753.16;108820;1253;110217;-82
2023/07/30 06:45:19;;;;;;;6.30;3.70;;;;;;;18.67;90.88;96750.38;108784;1252;107550;-83
2023/07/30 06:47:47;;;;;;;4.80;4.20;;;;;;;18.76;90.97;96745.23;108789;1252;94123;-83
2023/07/30 06:50:14;;;;;;;7.90;4.00;;;;;;;18.83;90.77;96742.38;108838;1253;94656;-82
2023/07/30 06:52:42;;;;;;;7.40;4.10;;;;;;;18.93;90.63;96739.82;108895;1253;102341;-83
2023/07/30 06:55:10;;;;;;;4.20;3.80;;;;;;;19.03;90.57;96737.31;108800;1253;101297;-83
2023/07/30 06:57:37;;;;;;;4.00;3.60;;;;;;;19.12;90.55;96734.20;108818;1253;100087;-83
2023/07/30 07:00:06;;;;;;;4.30;3.40;;;;;;;19.22;90.57;96726.70;108794;1252;94151;-83
2023/07/30 07:02:33;;;;;;;7.70;3.50;;;;;;;19.31;90.61;96729.16;108839;1256;94383;-83
2023/07/30 07:05:01;;;;;;;6.90;3.50;;;;;;;19.41;90.69;96729.55;108859;1253;101222;-80
2023/07/30 07:07:29;;;;;;;3.90;2.80;;;;;;;19.51;90.35;96729.17;108877;1253;101431;-82
2023/07/30 07:09:56;;;;;;;4.90;3.00;;;;;;;19.58;89.72;96729.45;108822;1252;100083;-83
2023/07/30 07:12:24;;;;;;;3.80;2.90;;;;;;;19.64;88.94;96735.60;108773;1253;94145;-83
2023/07/30 07:14:52;;;;;;;3.40;2.70;;;;;;;19.73;88.92;96738.16;108828;1253;94662;-83
2023/07/30 07:17:19;;;;;;;3.50;2.70;;;;;;;19.85;88.89;96743.54;108794;1253;109962;-83
2023/07/30 07:19:47;;;;;;;3.30;2.20;;;;;;;19.92;88.39;96741.94;108801;1254;109246;-82
2023/07/30 07:22:17;;;;;;;3.50;3.00;;;;;;;19.98;87.98;96739.27;108793;1253;99953;-82
2023/07/30 07:24:45;;;;;;;4.70;2.50;;;;;;;20.07;87.82;96733.70;108835;1253;94156;-82
2023/07/30 07:27:13;;;;;;;5.40;2.40;;;;;;;20.16;87.36;96732.02;108793;1253;94538;-82
2023/07/30 07:29:41;;;;;;;2.80;1.90;;;;;;;20.25;87.08;96735.05;108776;1253;102343;-83
2023/07/30 07:32:09;;;;;;;3.20;2.50;;;;;;;20.35;86.78;96737.40;108806;1253;101150;-82
2023/07/30 07:34:37;;;;;;;3.60;2.30;;;;;;;20.44;86.36;96740.20;108836;1252;100117;-82
2023/07/30 07:37:04;;;;;;;2.50;2.10;;;;;;;20.57;86.37;96742.59;108833;1252;94428;-83
2023/07/30 07:39:34;;;;;;;3.10;1.80;;;;;;;20.70;86.82;96746.56;108830;1253;94600;-82
2023/07/30 07:42:02;;;;;;;2.00;1.90;;;;;;;20.81;85.72;96746.70;108805;1253;102296;-82
2023/07/30 07:44:29;;;;;;;4.40;2.60;;;;;;;20.90;85.16;96741.49;108833;1253;101632;-82
2023/07/30 07:46:57;;;;;;;2.50;2.20;;;;;;;21.01;85.19;96738.39;108720;1253;99965;-83
2023/07/30 07:49:24;;;;;;;2.30;2.10;;;;;;;21.16;84.43;96737.83;108788;1255;94233;-81
2023/07/30 07:51:52;;;;;;;2.70;2.10;;;;;;;21.29;83.89;96735.53;108787;1253;94558;-81
2023/07/30 07:54:20;;;;;;;6.80;2.30;;;;;;;21.41;83.44;96737.39;108607;1253;293384;-82
2023/07/30 07:56:47;;;;;;;5.40;2.40;;;;;;;21.57;82.64;96738.80;108784;1253;109280;-82
2023/07/30 07:59:15;;;;;;;3.60;1.90;;;;;;;21.73;81.89;96736.73;108800;1253;100177;-82
2023/07/30 08:01:43;;;;;;;3.70;2.00;;;;;;;21.92;81.54;96733.20;108697;1254;94212;-82
2023/07/30 08:04:10;;;;;;;6.30;2.50;;;;;;;22.14;81.23;96728.16;108721;1256;94497;-81
2023/07/30 08:06:38;;;;;;;2.00;1.90;;;;;;;22.31;81.00;96727.80;108790;1254;102405;-82
2023/07/30 08:09:06;;;;;;;2.30;1.70;;;;;;;22.50;80.44;96730.80;108833;1253;101597;-82
2023/07/30 08:11:34;;;;;;;5.10;2.30;;;;;;;22.78;80.77;96732.52;108765;1253;100116;-83
2023/07/30 08:14:02;;;;;;;2.70;2.30;;;;;;;23.10;80.16;96733.16;108722;1253;94171;-82
2023/07/30 08:16:30;;;;;;;3.80;2.30;;;;;;;23.33;78.79;96739.39;108834;1253;94696;-81
2023/07/30 08:18:57;;;;;;;5.20;2.30;;;;;;;23.42;77.82;96735.01;108845;1256;102044;-82
2023/07/30 08:21:25;;;;;;;2.10;1.90;;;;;;;23.53;77.91;96734.67;108807;1253;101534;-82
2023/07/30 08:23:53;;;;;;;2.60;1.90;;;;;;;23.66;77.82;96738.64;108773;1254;100044;-82
2023/07/30 08:26:21;;;;;;;2.40;2.20;;;;;;;23.73;77.18;96736.02;108812;1253;94315;-82
2023/07/30 08:28:48;;;;;;;3.00;1.90;;;;;;;23.81;77.18;96736.05;108839;1256;94681;-82
2023/07/30 08:31:16;;;;;;;4.60;2.20;;;;;;;23.91;76.86;96739.98;108815;1254;102158;-83
2023/07/30 08:33:44;;;;;;;2.10;1.90;;;;;;;23.93;75.84;96739.26;108816;1253;101567;-82
2023/07/30 08:36:12;;;;;;;2.80;2.10;;;;;;;23.76;75.06;96738.31;108742;1254;107676;-82
2023/07/30 08:38:39;;;;;;;2.30;2.10;;;;;;;23.82;75.61;96739.34;108778;1253;94178;-82
2023/07/30 08:41:08;;;;;;;3.50;2.00;;;;;;;24.07;75.58;96742.56;108761;1254;94303;-82
2023/07/30 08:43:36;;;;;;;2.20;2.00;;;;;;;24.22;73.81;96747.77;108810;1254;111789;-83
2023/07/30 08:46:04;;;;;;;4.40;1.90;;;;;;;24.44;73.53;96747.82;108836;1254;109245;-82
2023/07/30 08:48:32;;;;;;;2.10;1.90;;;;;;;24.59;72.70;96743.34;108799;1254;99701;-82
2023/07/30 08:51:01;;;;;;;2.60;1.70;;;;;;;24.76;72.31;96744.96;108725;1254;94207;-82
2023/07/30 08:53:29;;;;;;;2.10;1.60;;;;;;;24.95;71.95;96744.90;108807;1252;94868;-82
2023/07/30 08:55:56;;;;;;;2.60;1.90;;;;;;;25.15;71.46;96745.65;108794;1254;110820;-81
2023/07/30 08:58:28;;;;;;;1.90;1.40;;;;;;;25.38;70.26;96745.95;108792;1253;101682;-82
2023/07/30 09:00:56;;;;;;;3.70;1.70;;;;;;;25.61;70.22;96740.19;108771;1256;100100;-82
2023/07/30 09:03:28;;;;;;;1.90;1.80;;;;;;;25.77;70.01;96745.13;108784;1254;94204;-82
2023/07/30 09:05:55;;;;;;;1.90;1.70;;;;;;;25.87;68.91;96746.06;108751;1253;94229;-82
2023/07/30 09:08:24;;;;;;;2.60;1.80;;;;;;;26.07;67.31;96744.35;108840;1254;102181;-82
2023/07/30 09:10:52;;;;;;;2.50;1.50;;;;;;;26.26;66.98;96747.51;108810;1253;100561;-79
2023/07/30 09:13:23;;;;;;;3.00;1.70;;;;;;;26.31;66.49;96743.84;108870;1254;99160;-82
2023/07/30 09:15:51;;;;;;;2.90;1.70;;;;;;;26.30;66.20;96748.83;108790;1252;94187;-81
2023/07/30 09:18:19;;;;;;;1.60;1.50;;;;;;;26.25;66.59;96750.91;108809;1254;94217;-82
2023/07/30 09:20:47;;;;;;;2.30;1.60;;;;;;;26.28;66.28;96753.81;108833;1252;102335;-82
2023/07/30 09:23:15;;;;;;;1.70;1.50;;;;;;;26.37;65.93;96750.52;108822;1252;101509;-82
2023/07/30 09:25:43;;;;;;;1.60;1.40;;;;;;;26.50;65.63;96750.40;108757;1253;100133;-82
2023/07/30 09:28:11;;;;;;;2.80;1.70;;;;;;;26.71;65.51;96751.61;108752;1254;94242;-82
2023/07/30 09:30:39;;;;;;;3.00;1.50;;;;;;;26.86;63.97;96746.92;108795;1254;94240;-82
2023/07/30 09:33:07;;;;;;;1.80;1.70;;;;;;;26.88;63.55;96743.30;108832;1253;101237;-82
2023/07/30 09:35:35;;;;;;;2.20;2.00;;;;;;;26.89;63.40;96742.48;108860;1254;109439;-82
2023/07/30 09:38:04;;;;;;;4.00;2.20;;;;;;;26.90;63.49;96739.91;108765;1252;100177;-82
2023/07/30 09:40:34;;;;;;;3.80;1.60;;;;;;;26.85;63.22;96739.30;108787;1253;94190;-82
2023/07/30 09:43:04;;;;;;;2.10;1.70;;;;;;;26.81;63.16;96733.20;108816;1254;94186;-82
2023/07/30 09:45:37;;;;;;;1.50;1.20;;;;;;;26.79;62.34;96732.43;108739;1252;102394;-82
2023/07/30 09:48:06;;;;;;;2.80;1.70;;;;;;;26.83;62.20;96731.88;108511;1257;101761;-81
2023/07/30 09:50:34;;;;;;;1.30;1.20;;;;;;;26.97;60.95;96729.37;108624;1257;100217;-79
2023/07/30 09:53:04;;;;;;;1.90;1.70;;;;;;;27.07;60.13;96730.39;108601;1256;94657;-82
2023/07/30 09:55:32;;;;;;;1.80;1.60;;;;;;;27.18;60.20;96732.13;108560;1256;94306;-82
2023/07/30 09:57:59;;;;;;;2.80;1.30;;;;;;;27.13;60.10;96728.92;108609;1256;102365;-83
2023/07/30 10:00:30;;;;;;;1.40;1.30;;;;;;;26.86;59.66;96732.73;108600;1256;101554;-83
2023/07/30 10:02:59;;;;;;;2.50;1.40;;;;;;;26.81;58.94;96732.87;108525;1257;101840;-83
2023/07/30 10:05:33;;;;;;;4.20;1.80;;;;;;;26.84;58.67;96735.16;108540;1256;94297;-82
2023/07/30 10:08:07;;;;;;;2.70;1.60;;;;;;;26.90;58.81;96734.92;108614;1255;94263;-82
2023/07/30 10:10:35;;;;;;;1.90;1.70;;;;;;;27.00;58.21;96734.18;108591;1256;102449;-82
2023/07/30 10:13:08;;;;;;;1.60;1.50;;;;;;;27.01;58.67;96730.80;108619;1257;101486;-82
2023/07/30 10:15:39;;;;;;;3.10;1.60;;;;;;;26.87;59.13;96733.40;108598;1257;100069;-81
2023/07/30 10:18:07;;;;;;;1.40;1.30;;;;;;;26.80;58.03;96736.66;108613;1257;94277;-81
2023/07/30 10:20:35;;;;;;;1.60;1.50;;;;;;;26.80;56.78;96732.14;108743;1253;94390;-83
2023/07/30 10:23:05;;;;;;;1.50;1.40;;;;;;;26.83;57.01;96731.16;108755;1252;102697;-81
2023/07/30 10:25:51;;;;;;;1.60;1.50;;;;;;;26.81;56.96;96729.00;108802;1253;101825;-81
2023/07/30 10:28:31;;;;;;;1.50;1.30;;;;;;;26.83;56.86;96725.74;108779;1252;100056;-81
2023/07/30 10:31:03;;;;;;;2.80;1.50;;;;;;;26.88;56.71;96724.73;108794;1254;94217;-82
2023/07/30 10:33:51;;;;;;;1.50;1.40;;;;;;;27.00;56.33;96720.70;108755;1253;94377;-81
2023/07/30 10:36:33;;;;;;;1.60;1.40;;;;;;;27.14;55.83;96722.55;108759;1252;102212;-81
2023/07/30 10:39:15;;;;;;;3.80;1.30;;;;;;;27.23;55.72;96720.86;108781;1252;101636;-82
2023/07/30 10:41:47;;;;;;;;;;;;;;;27.20;55.69;96720.66;108777;1253;100681;-82
2023/07/30 10:44:31;;;;;;;1.60;1.50;;;;;;;27.15;55.90;96715.79;108719;1253;94907;-82
2023/07/30 10:47:00;;;;;;;4.10;1.40;;;;;;;27.13;55.77;96713.95;108765;1254;95394;-82
2023/07/30 10:49:28;;;;;;;1.90;1.50;;;;;;;27.12;56.25;96713.76;108819;1253;110105;-83
2023/07/30 10:51:58;;;;;;;1.50;1.40;;;;;;;27.11;56.28;96710.86;108818;1253;101863;-82
2023/07/30 10:54:26;;;;;;;1.60;1.50;;;;;;;27.17;56.51;96710.83;108695;1253;100123;-82
2023/07/30 10:56:55;;;;;;;2.00;1.80;;;;;;;27.23;56.10;96706.23;108732;1253;94180;-82
2023/07/30 10:59:23;;;;;;;2.20;1.50;;;;;;;27.20;55.85;96703.30;108663;1252;94190;-82
2023/07/30 11:01:53;;;;;;;2.30;1.40;;;;;;;27.16;55.87;96703.02;108777;1253;102390;-82
2023/07/30 11:04:21;;;;;;;2.30;1.40;;;;;;;27.13;55.66;96701.79;108790;1252;101685;-82
2023/07/30 11:06:52;;;;;;;1.40;1.20;;;;;;;27.12;54.62;96702.19;108762;1253;100168;-81
2023/07/30 11:09:21;;;;;;;2.10;1.50;;;;;;;27.15;54.01;96705.59;108758;1254;95393;-82
2023/07/30 11:11:49;;;;;;;2.50;1.50;;;;;;;27.20;54.02;96702.61;108801;1253;94456;-82
2023/07/30 11:14:19;;;;;;;2.30;1.40;;;;;;;27.04;54.41;96700.23;108790;1253;102085;-82
2023/07/30 11:16:50;;;;;;;1.60;1.50;;;;;;;26.85;54.29;96695.77;108756;1252;101654;-82
2023/07/30 11:19:19;;;;;;;2.70;1.70;;;;;;;26.83;54.14;96697.28;108810;1253;100063;-82
2023/07/30 11:21:51;;;;;;;2.00;1.70;;;;;;;26.82;54.45;96698.10;108711;1253;94158;-83
2023/07/30 11:24:19;;;;;;;1.90;1.40;;;;;;;26.77;54.60;96699.50;108563;1256;94283;-82
2023/07/30 11:26:58;;;;;;;1.60;1.50;;;;;;;26.76;54.60;96697.02;108502;1255;111889;-82